createdAt,value
2023-03-13T00:01:19.290Z,98020.09
2023-03-13T00:03:46.036Z,98001.03
2023-03-13T00:06:13.052Z,98034.72
2023-03-13T00:08:39.657Z,98056.09
2023-03-13T00:11:08.416Z,98040.25
2023-03-13T00:13:36.218Z,97997.31
2023-03-13T00:16:08.455Z,98036.19
2023-03-13T00:18:35.331Z,98037.63
2023-03-13T00:21:04.363Z,98013.75
2023-03-13T00:23:32.515Z,98023.47
2023-03-13T00:26:01.539Z,98028.88
2023-03-13T00:28:32.384Z,98024.56
2023-03-13T00:31:14.962Z,98015.69
2023-03-13T00:33:50.041Z,98011.25
2023-03-13T00:36:20.050Z,97990.22
2023-03-13T00:38:47.114Z,97969.59
2023-03-13T00:41:16.592Z,97993.72
2023-03-13T00:43:44.502Z,98001.63
2023-03-13T00:46:12.775Z,97999.00
2023-03-13T00:48:39.421Z,98002.50
2023-03-13T00:51:07.568Z,97958.56
2023-03-13T00:53:34.578Z,97988.31
2023-03-13T00:56:04.141Z,97981.75
2023-03-13T00:58:33.228Z,98000.69
2023-03-13T01:01:13.736Z,97987.50
2023-03-13T01:03:42.826Z,97989.31
2023-03-13T01:06:13.339Z,97981.38
2023-03-13T01:08:40.438Z,97972.63
2023-03-13T01:11:13.020Z,97962.31
2023-03-13T01:13:40.423Z,97961.94
2023-03-13T01:16:11.452Z,97959.28
2023-03-13T01:18:40.366Z,97957.63
2023-03-13T01:21:07.448Z,97948.75
2023-03-13T01:23:36.984Z,97963.75
2023-03-13T01:26:06.990Z,97971.66
2023-03-13T01:28:34.618Z,97960.84
2023-03-13T01:31:01.641Z,97963.75
2023-03-13T01:33:29.758Z,97941.78
2023-03-13T01:36:01.974Z,97964.56
2023-03-13T01:38:28.543Z,97968.19
2023-03-13T01:40:55.365Z,97933.53
2023-03-13T01:43:31.912Z,97960.28
2023-03-13T01:46:16.459Z,97963.75
2023-03-13T01:49:29.220Z,97939.41
2023-03-13T01:52:06.848Z,97959.44
2023-03-13T01:54:47.639Z,97988.31
2023-03-13T01:57:25.010Z,97990.97
2023-03-13T02:00:16.980Z,97987.50
2023-03-13T02:02:48.502Z,97990.00
2023-03-13T02:05:16.987Z,97991.81
2023-03-13T02:07:57.017Z,97968.78
2023-03-13T02:10:25.868Z,97980.53
2023-03-13T02:12:56.530Z,97981.00
2023-03-13T02:15:26.238Z,97989.78
2023-03-13T02:17:54.687Z,97995.06
2023-03-13T02:20:22.393Z,97985.69
2023-03-13T02:23:00.849Z,98008.25
2023-03-13T02:25:32.228Z,97995.75
2023-03-13T02:27:59.194Z,98011.84
2023-03-13T02:30:30.304Z,98010.03
2023-03-13T02:32:57.501Z,98014.47
2023-03-13T02:35:24.286Z,98008.94
2023-03-13T02:37:57.023Z,98021.53
2023-03-13T02:40:28.897Z,97999.34
2023-03-13T02:42:59.023Z,98026.81
2023-03-13T02:45:26.025Z,98020.25
2023-03-13T02:47:52.670Z,98005.09
2023-03-13T02:50:20.687Z,98012.66
2023-03-13T02:52:53.522Z,98018.69
2023-03-13T02:55:26.621Z,97981.69
2023-03-13T02:57:53.392Z,98026.94
2023-03-13T03:00:20.721Z,98034.63
2023-03-13T03:02:47.343Z,98022.41
2023-03-13T03:05:14.529Z,98031.41
2023-03-13T03:07:41.162Z,98031.41
2023-03-13T03:10:08.430Z,98031.41
2023-03-13T03:12:35.759Z,98039.19
2023-03-13T03:15:04.770Z,98034.03
2023-03-13T03:17:32.492Z,98035.81
2023-03-13T03:19:59.193Z,98022.50
2023-03-13T03:22:25.930Z,98038.47
2023-03-13T03:24:52.505Z,98022.63
2023-03-13T03:27:19.354Z,98020.94
2023-03-13T03:29:51.808Z,98041.09
2023-03-13T03:32:18.461Z,98042.91
2023-03-13T03:34:45.055Z,98029.22
2023-03-13T03:37:11.700Z,98008.00
2023-03-13T03:39:39.346Z,97994.88
2023-03-13T03:42:06.559Z,98039.44
2023-03-13T03:44:33.390Z,98022.63
2023-03-13T03:47:00.881Z,97922.56
2023-03-13T03:49:31.882Z,98050.81
2023-03-13T03:51:58.579Z,98046.50
2023-03-13T03:54:33.083Z,98005.94
2023-03-13T03:57:00.359Z,98045.66
2023-03-13T03:59:27.109Z,98029.56
2023-03-13T04:01:59.266Z,98042.16
2023-03-13T04:04:28.509Z,98047.44
2023-03-13T04:07:01.498Z,98030.06
2023-03-13T04:09:31.917Z,98043.84
2023-03-13T04:11:59.821Z,98036.91
2023-03-13T04:14:26.976Z,98043.84
2023-03-13T04:16:54.485Z,98019.50
2023-03-13T04:19:21.142Z,98050.00
2023-03-13T04:21:47.772Z,97997.28
2023-03-13T04:24:17.526Z,98034.84
2023-03-13T04:26:45.143Z,98039.31
2023-03-13T04:29:12.123Z,98045.53
2023-03-13T04:31:48.274Z,98038.47
2023-03-13T04:34:31.723Z,98012.41
2023-03-13T04:37:04.577Z,98019.25
2023-03-13T04:39:41.737Z,98029.56
2023-03-13T04:42:34.606Z,98049.13
2023-03-13T04:45:24.333Z,97984.81
2023-03-13T04:48:13.168Z,98052.84
2023-03-13T04:50:58.228Z,98053.47
2023-03-13T04:53:30.059Z,98009.88
2023-03-13T04:56:42.354Z,98048.31
2023-03-13T04:59:28.951Z,98038.31
2023-03-13T05:02:18.736Z,98019.63
2023-03-13T05:05:01.156Z,98014.69
2023-03-13T05:07:46.524Z,98037.28
2023-03-13T05:10:32.079Z,98040.41
2023-03-13T05:13:16.153Z,98034.25
2023-03-13T05:15:53.145Z,98021.88
2023-03-13T05:18:49.501Z,98025.66
2023-03-13T05:21:34.576Z,98021.19
2023-03-13T05:24:01.292Z,98027.28
2023-03-13T05:26:44.732Z,98020.25
2023-03-13T05:29:43.715Z,97998.13
2023-03-13T05:32:16.866Z,97990.22
2023-03-13T05:34:46.882Z,97974.88
2023-03-13T05:39:55.799Z,98006.91
2023-03-13T05:42:46.215Z,97993.84
2023-03-13T05:45:15.782Z,97987.59
2023-03-13T05:47:45.153Z,97992.78
2023-03-13T05:50:31.852Z,97997.78
2023-03-13T05:53:18.738Z,97997.56
2023-03-13T05:55:57.018Z,97969.50
2023-03-13T05:58:42.354Z,97981.84
2023-03-13T06:01:14.993Z,98007.03
2023-03-13T06:03:57.611Z,97969.25
2023-03-13T06:06:25.391Z,98005.13
2023-03-13T06:08:54.982Z,98007.78
2023-03-13T06:11:23.973Z,97987.38
2023-03-13T06:13:54.969Z,97998.28
2023-03-13T06:16:28.212Z,97979.94
2023-03-13T06:19:11.844Z,97996.97
2023-03-13T06:21:39.174Z,98010.03
2023-03-13T06:24:06.063Z,98007.31
2023-03-13T06:26:32.796Z,97999.38
2023-03-13T06:28:59.342Z,97964.09
2023-03-13T06:31:26.162Z,97979.81
2023-03-13T06:33:54.477Z,97997.34
2023-03-13T06:36:22.692Z,97995.41
2023-03-13T06:38:49.367Z,97988.34
2023-03-13T06:41:16.445Z,97991.72
2023-03-13T06:43:43.569Z,97970.56
2023-03-13T06:46:17.673Z,97988.00
2023-03-13T06:48:44.820Z,97975.50
2023-03-13T06:51:12.748Z,97973.59
2023-03-13T06:53:39.788Z,97982.22
2023-03-13T06:56:07.491Z,97971.19
2023-03-13T06:58:34.486Z,97964.00
2023-03-13T07:01:08.048Z,97915.06
2023-03-13T07:03:36.196Z,97937.22
2023-03-13T07:06:03.733Z,97964.97
2023-03-13T07:08:30.703Z,97956.59
2023-03-13T07:11:02.874Z,97931.25
2023-03-13T07:13:30.026Z,97977.91
2023-03-13T07:16:00.403Z,97981.25
2023-03-13T07:20:10.619Z,97949.13
2023-03-13T07:22:38.065Z,97901.72
2023-03-13T07:25:05.718Z,97975.38
2023-03-13T07:27:33.142Z,97941.69
2023-03-13T07:29:59.809Z,97970.94
2023-03-13T07:32:46.445Z,97943.22
2023-03-13T07:35:13.207Z,97951.25
2023-03-13T07:37:39.748Z,97953.41
2023-03-13T07:40:06.943Z,97940.59
2023-03-13T07:42:33.811Z,97931.94
2023-03-13T07:45:00.846Z,97950.19
2023-03-13T07:47:30.208Z,97941.75
2023-03-13T07:49:56.913Z,97912.63
2023-03-13T07:52:23.556Z,97934.44
2023-03-13T07:54:50.250Z,97926.03
2023-03-13T07:57:17.660Z,97888.88
2023-03-13T07:59:44.651Z,97934.19
2023-03-13T08:02:13.755Z,97946.19
2023-03-13T08:04:40.595Z,97942.72
2023-03-13T08:07:11.077Z,97923.41
2023-03-13T08:09:37.906Z,97941.75
2023-03-13T08:12:06.468Z,97934.66
2023-03-13T08:14:33.092Z,97811.31
2023-03-13T08:16:59.838Z,97931.19
2023-03-13T08:19:26.570Z,97915.47
2023-03-13T08:21:53.159Z,97931.06
2023-03-13T08:24:20.017Z,97888.75
2023-03-13T08:26:46.800Z,97893.28
2023-03-13T08:29:14.822Z,97917.72
2023-03-13T08:31:47.929Z,97904.19
2023-03-13T08:34:16.231Z,97904.88
2023-03-13T08:36:43.125Z,97907.88
2023-03-13T08:39:15.493Z,97895.31
2023-03-13T08:41:42.924Z,97902.47
2023-03-13T08:44:15.912Z,97912.41
2023-03-13T08:46:44.039Z,97913.94
2023-03-13T08:49:12.152Z,97904.09
2023-03-13T08:53:57.932Z,97885.03
2023-03-13T08:56:30.297Z,97897.34
2023-03-13T08:58:59.901Z,97892.78
2023-03-13T09:01:29.189Z,97885.56
2023-03-13T09:03:57.284Z,97892.38
2023-03-13T09:06:24.349Z,97890.59
2023-03-13T09:08:51.083Z,97862.56
2023-03-13T09:11:21.204Z,97885.91
2023-03-13T09:13:50.614Z,97881.22
2023-03-13T09:16:25.487Z,97882.50
2023-03-13T09:18:53.581Z,97878.75
2023-03-13T09:21:26.295Z,97885.72
2023-03-13T09:23:53.234Z,97868.91
2023-03-13T09:26:23.007Z,97878.97
2023-03-13T09:28:51.652Z,97850.09
2023-03-13T09:31:20.132Z,97886.53
2023-03-13T09:33:48.696Z,97871.63
2023-03-13T09:36:15.824Z,97877.34
2023-03-13T09:38:42.766Z,97872.78
2023-03-13T09:41:18.409Z,97860.66
2023-03-13T09:43:59.782Z,97876.84
2023-03-13T09:46:48.697Z,97872.41
2023-03-13T09:49:29.017Z,97852.94
2023-03-13T09:52:17.393Z,97857.81
2023-03-13T09:54:51.050Z,97803.28
2023-03-13T09:57:36.039Z,97854.63
2023-03-13T10:00:12.890Z,97850.06
2023-03-13T10:02:44.185Z,97848.94
2023-03-13T10:05:20.714Z,97819.09
2023-03-13T10:07:47.937Z,97837.13
2023-03-13T10:10:18.030Z,97827.66
2023-03-13T10:12:52.186Z,97837.59
2023-03-13T10:15:34.293Z,97826.88
2023-03-13T10:18:13.287Z,97821.59
2023-03-13T10:20:40.853Z,97835.38
2023-03-13T10:23:16.550Z,97830.81
2023-03-13T10:25:43.262Z,97810.69
2023-03-13T10:28:13.310Z,97825.53
2023-03-13T10:30:52.171Z,97813.13
2023-03-13T10:33:27.330Z,97824.13
2023-03-13T10:36:04.030Z,97813.16
2023-03-13T10:38:45.729Z,97797.16
2023-03-13T10:41:22.787Z,97801.50
2023-03-13T10:43:54.921Z,97803.03
2023-03-13T10:46:27.185Z,97796.78
2023-03-13T10:48:55.943Z,97802.78
2023-03-13T10:51:25.232Z,97798.31
2023-03-13T10:53:52.265Z,97778.50
2023-03-13T10:56:31.559Z,97772.41
2023-03-13T10:58:58.304Z,97788.00
2023-03-13T11:01:33.644Z,97779.06
2023-03-13T11:04:29.994Z,97782.47
2023-03-13T11:07:14.491Z,97776.34
2023-03-13T11:09:41.107Z,97777.72
2023-03-13T11:12:17.391Z,97768.81
2023-03-13T11:14:45.250Z,97763.63
2023-03-13T11:17:38.747Z,97765.78
2023-03-13T11:20:36.360Z,97762.13
2023-03-13T11:23:19.701Z,97750.56
2023-03-13T11:25:58.750Z,97751.28
2023-03-13T11:28:49.766Z,97751.13
2023-03-13T11:31:40.642Z,97742.22
2023-03-13T11:34:26.554Z,97740.28
2023-03-13T11:37:12.817Z,97736.78
2023-03-13T11:39:58.379Z,97725.06
2023-03-13T11:43:23.971Z,97715.19
2023-03-13T11:46:12.613Z,97715.03
2023-03-13T11:49:10.023Z,97703.63
2023-03-13T11:52:11.215Z,97701.53
2023-03-13T11:54:56.368Z,97696.09
2023-03-13T11:57:35.254Z,97696.94
2023-03-13T12:00:21.636Z,97701.13
2023-03-13T12:03:05.705Z,97691.22
2023-03-13T12:05:55.348Z,97677.84
2023-03-13T12:08:34.574Z,97670.44
2023-03-13T12:11:13.490Z,97651.78
2023-03-13T12:14:15.863Z,97647.16
2023-03-13T12:16:49.687Z,97630.31
2023-03-13T12:19:22.682Z,97638.09
2023-03-13T12:21:57.156Z,97646.75
2023-03-13T12:24:46.096Z,97635.19
2023-03-13T12:27:24.253Z,97638.09
2023-03-13T12:30:00.153Z,97634.34
2023-03-13T12:32:37.345Z,97629.47
2023-03-13T12:35:28.784Z,97637.25
2023-03-13T12:38:10.294Z,97612.28
2023-03-13T12:40:51.887Z,97610.47
2023-03-13T12:43:39.223Z,97588.06
2023-03-13T12:46:43.086Z,97618.19
2023-03-13T12:49:34.497Z,97627.78
2023-03-13T12:52:10.244Z,97610.94
2023-03-13T12:55:21.427Z,97604.66
2023-03-13T12:57:59.887Z,97608.84
2023-03-13T13:00:30.289Z,97578.84
2023-03-13T13:03:07.823Z,97589.97
2023-03-13T13:05:34.570Z,97589.81
2023-03-13T13:08:01.095Z,97589.72
2023-03-13T13:10:28.891Z,97573.53
2023-03-13T13:13:13.757Z,97586.06
2023-03-13T13:16:01.332Z,97597.50
2023-03-13T13:18:29.006Z,97605.44
2023-03-13T13:21:20.077Z,97606.28
2023-03-13T13:23:48.164Z,97610.06
2023-03-13T13:26:37.400Z,97614.91
2023-03-13T13:29:13.087Z,97616.75
2023-03-13T13:31:47.986Z,97622.88
2023-03-13T13:34:34.523Z,97619.41
2023-03-13T13:37:03.854Z,97625.53
2023-03-13T13:39:40.436Z,97632.50
2023-03-13T13:42:41.911Z,97612.97
2023-03-13T13:45:14.595Z,97618.28
2023-03-13T13:47:49.445Z,97630.66
2023-03-13T13:50:27.048Z,97626.34
2023-03-13T13:53:45.999Z,97619.41
2023-03-13T13:56:28.527Z,97600.00
2023-03-13T13:59:01.925Z,97610.59
2023-03-13T14:01:29.340Z,97615.91
2023-03-13T14:04:10.627Z,97615.91
2023-03-13T14:06:39.021Z,97615.91
2023-03-13T14:09:33.458Z,97620.22
2023-03-13T14:12:00.237Z,97603.34
2023-03-13T14:14:26.790Z,97606.00
2023-03-13T14:16:58.438Z,97604.31
2023-03-13T14:19:38.827Z,97594.69
2023-03-13T14:22:08.287Z,97593.03
2023-03-13T14:24:35.689Z,97588.56
2023-03-13T14:27:14.507Z,97587.88
2023-03-13T14:29:41.176Z,97579.69
2023-03-13T14:32:08.062Z,97589.97
2023-03-13T14:34:34.739Z,97576.88
2023-03-13T14:37:17.411Z,97571.88
2023-03-13T14:39:46.426Z,97540.53
2023-03-13T14:42:15.971Z,97532.06
2023-03-13T14:44:46.799Z,97567.69
2023-03-13T14:47:26.917Z,97533.44
2023-03-13T14:50:00.547Z,97563.91
2023-03-13T14:52:32.597Z,97481.56
2023-03-13T14:55:04.441Z,97563.09
2023-03-13T14:57:32.351Z,97563.66
2023-03-13T15:00:30.735Z,97559.75
2023-03-13T15:03:25.791Z,97564.06
2023-03-13T15:06:16.985Z,97551.81
2023-03-13T15:08:46.310Z,97559.75
2023-03-13T15:11:34.637Z,97569.53
2023-03-13T15:14:01.920Z,97548.72
2023-03-13T15:16:28.864Z,97559.75
2023-03-13T15:18:56.793Z,97555.41
2023-03-13T15:21:33.173Z,97557.09
2023-03-13T15:24:02.408Z,97559.63
2023-03-13T15:26:29.667Z,97559.06
2023-03-13T15:28:56.335Z,97555.00
2023-03-13T15:31:27.915Z,97548.03
2023-03-13T15:33:57.820Z,97544.81
2023-03-13T15:36:26.920Z,97542.88
2023-03-13T15:38:54.049Z,97549.84
2023-03-13T15:41:22.476Z,97541.19
2023-03-13T15:43:55.253Z,97544.41
2023-03-13T15:46:22.749Z,97542.59
2023-03-13T15:48:51.409Z,97539.09
2023-03-13T15:51:18.361Z,97523.63
2023-03-13T15:53:46.153Z,97540.94
2023-03-13T15:58:32.422Z,97534.78
2023-03-13T16:00:59.062Z,97510.56
2023-03-13T16:03:30.064Z,97524.34
2023-03-13T16:05:57.466Z,97505.41
2023-03-13T16:08:37.054Z,97531.47
2023-03-13T16:11:04.676Z,97522.38
2023-03-13T16:13:31.408Z,97535.09
2023-03-13T16:15:58.555Z,97531.00
2023-03-13T16:18:25.566Z,97532.59
2023-03-13T16:20:53.786Z,97519.91
2023-03-13T16:23:20.377Z,97531.31
2023-03-13T16:25:48.620Z,97526.28
2023-03-13T16:28:16.192Z,97532.13
2023-03-13T16:30:47.824Z,97513.03
2023-03-13T16:33:14.715Z,97522.13
2023-03-13T16:35:41.319Z,97518.50
2023-03-13T16:38:11.238Z,97535.47
2023-03-13T16:40:37.844Z,97544.25
2023-03-13T16:43:04.368Z,97532.13
2023-03-13T16:45:30.976Z,97544.41
2023-03-13T16:47:57.641Z,97475.00
2023-03-13T16:50:31.383Z,97525.69
2023-03-13T16:52:58.009Z,97517.91
2023-03-13T16:55:28.298Z,97481.31
2023-03-13T16:57:58.683Z,97517.53
2023-03-13T17:00:27.706Z,97505.53
2023-03-13T17:02:54.936Z,97495.50
2023-03-13T17:05:21.608Z,97493.53
2023-03-13T17:07:50.716Z,97496.50
2023-03-13T17:10:27.992Z,97509.81
2023-03-13T17:12:54.733Z,97508.03
2023-03-13T17:15:21.706Z,97485.59
2023-03-13T17:20:16.620Z,97446.66
2023-03-13T17:22:43.674Z,97481.81
2023-03-13T17:25:13.269Z,97489.19
2023-03-13T17:27:40.934Z,97483.91
2023-03-13T17:30:17.010Z,97472.88
2023-03-13T17:32:43.695Z,97479.47
2023-03-13T17:35:10.720Z,97471.50
2023-03-13T17:37:37.520Z,97436.16
2023-03-13T17:40:21.545Z,97453.25
2023-03-13T17:42:48.608Z,97471.78
2023-03-13T17:45:15.703Z,97464.94
2023-03-13T17:47:42.566Z,97467.44
2023-03-13T17:50:21.827Z,97446.16
2023-03-13T17:52:49.060Z,97460.78
2023-03-13T17:55:15.896Z,97467.03
2023-03-13T17:57:43.848Z,97461.75
2023-03-13T18:00:28.870Z,97446.31
2023-03-13T18:02:56.120Z,97456.75
2023-03-13T18:05:22.771Z,97436.28
2023-03-13T18:07:49.861Z,97436.28
2023-03-13T18:10:23.369Z,97440.34
2023-03-13T18:12:51.493Z,97413.34
2023-03-13T18:15:19.399Z,97417.53
2023-03-13T18:17:46.386Z,97427.38
2023-03-13T18:20:26.158Z,97423.06
2023-03-13T18:22:52.757Z,97403.75
2023-03-13T18:25:19.575Z,97418.06
2023-03-13T18:27:46.408Z,97398.00
2023-03-13T18:30:21.542Z,97391.88
2023-03-13T18:32:49.032Z,97394.66
2023-03-13T18:35:16.180Z,97390.66
2023-03-13T18:37:45.075Z,97384.38
2023-03-13T18:40:15.057Z,97358.41
2023-03-13T18:42:41.670Z,97376.72
2023-03-13T18:45:13.615Z,97362.78
2023-03-13T18:47:40.191Z,97366.44
2023-03-13T18:50:18.871Z,97355.00
2023-03-13T18:52:45.623Z,97341.94
2023-03-13T18:55:12.154Z,97324.59
2023-03-13T18:57:38.768Z,97345.72
2023-03-13T19:00:24.857Z,97334.56
2023-03-13T19:02:51.720Z,97350.31
2023-03-13T19:05:19.819Z,97334.56
2023-03-13T19:07:51.086Z,97325.94
2023-03-13T19:10:32.240Z,97321.41
2023-03-13T19:12:59.012Z,97326.78
2023-03-13T19:15:30.042Z,97322.47
2023-03-13T19:18:01.841Z,97320.66
2023-03-13T19:20:30.095Z,97318.00
2023-03-13T19:23:00.375Z,97308.28
2023-03-13T19:25:29.997Z,97294.94
2023-03-13T19:27:58.960Z,97318.84
2023-03-13T19:30:27.355Z,97188.78
2023-03-13T19:32:54.319Z,97303.78
2023-03-13T19:35:22.041Z,97311.56
2023-03-13T19:37:49.503Z,97320.38
2023-03-13T19:40:30.261Z,97312.44
2023-03-13T19:42:57.179Z,97307.13
2023-03-13T19:45:23.768Z,97295.56
2023-03-13T19:47:53.179Z,97301.69
2023-03-13T19:50:28.926Z,97299.03
2023-03-13T19:52:57.869Z,97301.53
2023-03-13T19:55:24.621Z,97296.22
2023-03-13T19:57:52.703Z,97300.31
2023-03-13T20:00:31.046Z,97319.09
2023-03-13T20:02:57.885Z,97297.97
2023-03-13T20:05:30.118Z,97311.13
2023-03-13T20:07:59.145Z,97319.94
2023-03-13T20:10:25.840Z,97310.31
2023-03-13T20:12:53.622Z,97301.69
2023-03-13T20:15:20.397Z,97297.09
2023-03-13T20:17:47.000Z,97277.88
2023-03-13T20:20:13.990Z,97281.03
2023-03-13T20:22:42.424Z,97281.88
2023-03-13T20:25:09.682Z,97284.50
2023-03-13T20:27:37.355Z,97281.88
2023-03-13T20:30:07.602Z,97286.34
2023-03-13T20:32:34.532Z,97282.88
2023-03-13T20:35:01.168Z,97283.69
2023-03-13T20:37:27.871Z,97277.59
2023-03-13T20:39:54.394Z,97273.16
2023-03-13T20:42:22.624Z,97280.22
2023-03-13T20:44:52.080Z,97271.88
2023-03-13T20:47:18.699Z,97275.91
2023-03-13T20:49:45.316Z,97263.81
2023-03-13T20:52:11.943Z,97267.59
2023-03-13T20:54:38.848Z,97274.41
2023-03-13T20:57:05.672Z,97255.16
2023-03-13T20:59:32.301Z,97247.06
2023-03-13T21:01:59.645Z,97253.34
2023-03-13T21:04:28.978Z,97246.41
2023-03-13T21:06:57.760Z,97242.91
2023-03-13T21:09:29.985Z,97241.25
2023-03-13T21:11:56.643Z,97077.19
2023-03-13T21:14:23.163Z,97247.50
2023-03-13T21:16:49.733Z,97218.94
2023-03-13T21:19:16.382Z,97230.00
2023-03-13T21:21:43.030Z,97210.84
2023-03-13T21:24:10.551Z,97210.03
2023-03-13T21:26:37.695Z,97231.97
2023-03-13T21:29:04.242Z,97225.97
2023-03-13T21:31:32.253Z,97216.69
2023-03-13T21:33:59.306Z,97208.22
2023-03-13T21:36:26.117Z,97201.25
2023-03-13T21:38:52.659Z,97209.44
2023-03-13T21:41:21.636Z,97202.31
2023-03-13T21:43:48.565Z,97205.94
2023-03-13T21:46:18.190Z,97201.63
2023-03-13T21:51:16.999Z,97204.25
2023-03-13T21:53:44.468Z,97198.59
2023-03-13T21:56:15.278Z,97193.31
2023-03-13T21:58:42.707Z,97192.84
2023-03-13T22:01:09.299Z,97170.34
2023-03-13T22:03:36.117Z,97166.41
2023-03-13T22:06:02.765Z,97167.81
2023-03-13T22:08:29.754Z,97157.72
2023-03-13T22:10:58.643Z,97170.19
2023-03-13T22:13:25.391Z,97157.72
2023-03-13T22:15:52.758Z,97177.44
2023-03-13T22:18:19.722Z,97171.59
2023-03-13T22:20:46.282Z,97158.59
2023-03-13T22:23:13.342Z,97183.25
2023-03-13T22:25:42.270Z,97163.28
2023-03-13T22:30:22.448Z,97186.06
2023-03-13T22:32:49.051Z,97180.75
2023-03-13T22:35:16.369Z,97158.91
2023-03-13T22:37:43.423Z,97153.53
2023-03-13T22:40:11.242Z,97171.97
2023-03-13T22:42:38.076Z,97157.25
2023-03-13T22:45:05.297Z,97155.28
2023-03-13T22:47:32.698Z,97153.94
2023-03-13T22:49:59.210Z,97169.50
2023-03-13T22:52:30.796Z,97174.78
2023-03-13T22:54:58.894Z,97157.41
2023-03-13T22:57:25.536Z,97132.84
2023-03-13T22:59:53.862Z,97136.00
2023-03-13T23:02:20.516Z,97122.91
2023-03-13T23:04:47.099Z,97111.41
2023-03-13T23:07:14.034Z,97129.97
2023-03-13T23:09:40.646Z,97131.09
2023-03-13T23:12:07.229Z,97136.06
2023-03-13T23:14:34.006Z,97131.75
2023-03-13T23:17:00.837Z,97114.84
2023-03-13T23:19:27.429Z,97101.47
2023-03-13T23:21:53.983Z,97104.47
2023-03-13T23:24:20.738Z,97086.56
2023-03-13T23:26:47.262Z,97081.56
2023-03-13T23:29:14.384Z,97079.09
2023-03-13T23:31:40.938Z,97102.81
2023-03-13T23:34:07.550Z,97094.22
2023-03-13T23:36:34.076Z,97081.72
2023-03-13T23:39:02.870Z,97083.00
2023-03-13T23:41:29.388Z,97094.06
2023-03-13T23:43:56.091Z,97086.94
2023-03-13T23:46:26.331Z,97076.50
2023-03-13T23:48:57.037Z,97075.53
2023-03-13T23:51:24.688Z,97080.81
2023-03-13T23:53:51.457Z,97077.31
2023-03-13T23:56:18.187Z,97076.50
2023-03-13T23:58:44.814Z,97076.50
